Saturday, November 29, 2014
09:50 UTC
  |  Log In   |  Register Free
Airport Search:

Pearson Field Airport
(KVUO)

Pearson Field Airport Diagram
No Airport Diagram Available

FAA data valid effective November 13, 2014 - January 08, 2015 (unless otherwise noted).

 
 
 
 
 
 
 
 
 
 
 
 
 
 

Current Aviation Weather for Pearson Field Airport (KVUO)

The most recent METAR observation for KVUO was updated at: 0923
METAR Summary (Translated METAR)
KVUO
290853Z AUTO 32005KT 5SM -RA FEW014 BKN030 OVC036 06/02 A2964 RMK AO2 RAB18 SLP036 P0004 60004 T00610022 53011
KPDX
290853Z 31008KT 10SM -RA SCT024 OVC029 06/04 A2964 RMK AO2 RAB25 SLP035 P0001 60002 T00610044 53009 $
(3.1 nm SE from KVUO)
KTTD
290905Z AUTO 31005KT 10SM BKN019 BKN045 OVC060 07/04 A2963 RMK AO2 RAB0854E02 P0000 T00670039 TSNO
(11.5 nm SE from KVUO)
TAF Summary (Translated TAF)
KPDX
(3.1 nm SE from KVUO)
290910Z 2909/3006 30008KT P6SM -SHRA SCT025 SCT050 BKN080 TEMPO 2909/2913 -SHRA BKN025 FM291300 30007KT P6SM -SHRA BKN025 BKN045 OVC060 FM291700 33008KT P6SM VCSH SCT030 BKN050 FM292100 34008KT P6SM SCT050 FM300400 08006KT P6SM SKC
KTTD
(11.5 nm SE from KVUO)
290535Z 2906/3006 26007KT P6SM -SHRA SCT035 OVC050 FM291200 25006KT P6SM -SHRA BKN025 BKN045 OVC060 FM291800 33004KT P6SM VCSH SCT030 BKN050 FM292100 32004KT P6SM SCT050 FM300300 08011KT P6SM SKC
  Airport Weather Conditions for KVUO

 Current Weather at VUO
43° F
Light Rain
Northwest winds at 5.8 mph
VUO NOAA Radar

Pressure: 29.64 in
Humidity: 76%
Wind: Northwest at 5.8 MPH (5 KT)
Dew Point: 36.0°F
Visibility: 5.00 mi


Airport Weather Forecast for KVUO

Translated METAR and TAF for KVUO
Translated METAR for KVUO (0945 UTC 29 November 2014)
found at http://aviationweather.gov/adds/metars/
 
METAR text: KVUO 290853Z AUTO 32005KT 5SM -RA FEW014 BKN030 OVC036 06/02 A2964 RMK AO2 RAB18 SLP036 P0004 60004 T00610022 53011
Conditions at: KVUO (VANCOUVER , WA, US) observed 0853 UTC 29 November 2014
Temperature: 6.1°C (43°F)
Dewpoint: 2.2°C (36°F) [RH = 76%]
Pressure (altimeter): 29.64 inches Hg (1003.8 mb)
[Sea-level pressure: 1003.6 mb]
Winds: from the NW (320 degrees) at 6 MPH (5 knots; 2.6 m/s)
Visibility: 5 miles (8 km)
Ceiling: 3000 feet AGL
Clouds: few clouds at 1400 feet AGL
broken clouds at 3000 feet AGL
overcast cloud deck at 3600 feet AGL
Weather: -RA  (light rain)
Translated TAF for KVUO

There is no translated TAF available for this airport

Find All Airport Services Find A Hotel Find A Rental Car Find A Golf Course Find A Restaurant $100 Hamburger



FBO's on the Field
FBO Company Facility Photos Services Transportation Aviation Fuel Prices: Prices include tax
Catering Weather Repair Courtesy Rental Type 100LL JetA JetA+ MOGAS 8087
 
Aero Maintenance Inc

This FBO has not yet been rated
FS:Epic
Last Updated: Nov-12
Login to update fuel prices
SS:
Contact Aero Maintenance IncMore FBO Information
 
Add another FBO Facility Photos Catering Weather Repair Courtesy Rental Type 100LL JetA JetA+ MOGAS 8087
Services Transportation Aviation Fuel Prices: Prices include tax


model-print
model-print
model-print
model-print